Time;durP1;ratioP1;P1;durP2;ratioP2;P2;SDS_P1;SDS_P2;PMS_P1;PMS_P2;Temp;Humidity;BMP_temperature;BMP_pressure;BME280_temperature;BME280_humidity;BME280_pressure;Samples;Min_cycle;Max_cycle;Signal;HPM_P1;HPM_P2
2022/02/28 00:02:26;;;;;;;25.27;14.67;;;;;;;-0.63;77.64;102645.06;5044010;28;20708;-82
2022/02/28 00:04:53;;;;;;;20.77;13.47;;;;;;;-0.63;77.69;102652.03;5042943;28;20300;-81
2022/02/28 00:07:20;;;;;;;25.83;14.43;;;;;;;-0.65;77.42;102652.03;5042525;28;20221;-82
2022/02/28 00:09:46;;;;;;;27.63;14.67;;;;;;;-0.67;77.77;102652.84;5041978;28;20230;-81
2022/02/28 00:12:13;;;;;;;21.63;14.17;;;;;;;-0.69;77.57;102655.44;5042037;28;20238;-81
2022/02/28 00:14:41;;;;;;;24.73;14.73;;;;;;;-0.70;77.63;102656.28;5042415;28;20206;-81
2022/02/28 00:17:08;;;;;;;22.33;14.07;;;;;;;-0.73;77.62;102657.16;5042234;28;20216;-81
2022/02/28 00:19:34;;;;;;;24.00;13.23;;;;;;;-0.75;77.73;102653.63;5041723;28;20553;-81
2022/02/28 00:22:01;;;;;;;20.47;14.30;;;;;;;-0.78;77.86;102645.72;5042272;28;20234;-81
2022/02/28 00:24:28;;;;;;;23.33;13.83;;;;;;;-0.79;78.00;102646.59;5042965;28;20211;-81
2022/02/28 00:26:54;;;;;;;20.50;13.70;;;;;;;-0.80;77.84;102646.56;5042637;28;20210;-81
2022/02/28 00:29:21;;;;;;;21.73;13.67;;;;;;;-0.82;78.15;102653.50;5042335;28;20237;-82
2022/02/28 00:31:49;;;;;;;26.27;15.10;;;;;;;-0.85;78.25;102653.44;5041040;28;20210;-81
2022/02/28 00:34:15;;;;;;;22.47;14.53;;;;;;;-0.87;78.44;102650.81;5028038;28;20214;-82
2022/02/28 00:36:42;;;;;;;21.70;13.93;;;;;;;-0.88;78.56;102654.28;5042276;28;20703;-82
2022/02/28 00:39:08;;;;;;;23.90;14.40;;;;;;;-0.92;78.47;102644.66;5028084;28;20202;-82
2022/02/28 00:41:35;;;;;;;26.50;14.80;;;;;;;-0.93;78.65;102639.41;5041320;28;20202;-82
2022/02/28 00:44:01;;;;;;;27.17;16.07;;;;;;;-0.95;78.45;102647.22;5041895;28;20206;-82
2022/02/28 00:46:28;;;;;;;23.17;13.47;;;;;;;-0.97;78.90;102642.81;5036748;28;20579;-81
2022/02/28 00:48:56;;;;;;;22.17;13.97;;;;;;;-0.99;78.73;102637.56;5041205;28;20641;-82
2022/02/28 00:51:22;;;;;;;24.20;15.53;;;;;;;-1.02;78.81;102640.13;5037327;28;20207;-82
2022/02/28 00:53:49;;;;;;;23.83;15.23;;;;;;;-1.03;78.97;102640.97;5035656;28;20234;-82
2022/02/28 00:56:16;;;;;;;24.40;14.63;;;;;;;-1.05;78.88;102635.72;5041418;28;20214;-81
2022/02/28 00:58:42;;;;;;;22.60;14.27;;;;;;;-1.05;79.41;102633.09;5029361;28;20225;-81
2022/02/28 01:01:09;;;;;;;24.80;14.13;;;;;;;-1.08;79.08;102633.06;5039197;28;20309;-82
2022/02/28 01:03:35;;;;;;;24.87;14.40;;;;;;;-1.08;79.66;102626.97;5041069;28;20226;-82
2022/02/28 01:06:03;;;;;;;22.07;14.43;;;;;;;-1.09;79.46;102625.19;5039593;28;20570;-80
2022/02/28 01:08:30;;;;;;;23.47;14.03;;;;;;;-1.11;79.94;102629.53;5041275;28;20206;-82
2022/02/28 01:10:57;;;;;;;24.03;14.53;;;;;;;-1.15;79.38;102630.31;5041193;28;20620;-82
2022/02/28 01:13:23;;;;;;;22.77;13.43;;;;;;;-1.18;79.47;102622.41;5041719;28;20233;-81
2022/02/28 01:15:50;;;;;;;21.33;13.40;;;;;;;-1.23;79.44;102619.72;5041083;28;20220;-81
2022/02/28 01:18:17;;;;;;;22.27;14.33;;;;;;;-1.28;79.76;102621.41;5041313;28;20850;-82
2022/02/28 01:20:45;;;;;;;22.57;13.57;;;;;;;-1.31;79.87;102625.69;5047935;28;20324;-82
2022/02/28 01:23:13;;;;;;;24.13;14.20;;;;;;;-1.35;80.02;102621.25;5045838;28;20249;-82
2022/02/28 01:25:39;;;;;;;24.47;14.17;;;;;;;-1.37;79.90;102617.75;5040318;28;20202;-82
2022/02/28 01:28:06;;;;;;;23.20;13.90;;;;;;;-1.36;80.27;102616.88;5039189;28;20218;-82
2022/02/28 01:30:33;;;;;;;25.00;14.17;;;;;;;-1.38;80.25;102613.38;5039397;28;20854;-82
2022/02/28 01:32:59;;;;;;;27.87;14.97;;;;;;;-1.41;80.75;102617.69;5038386;28;20230;-82
2022/02/28 01:35:26;;;;;;;23.00;14.47;;;;;;;-1.42;80.73;102602.84;5039202;28;20225;-82
2022/02/28 01:37:52;;;;;;;27.40;14.63;;;;;;;-1.43;80.27;102606.31;5038537;28;20206;-82
2022/02/28 01:40:20;;;;;;;22.13;13.30;;;;;;;-1.42;80.65;102608.09;5038882;28;20210;-82
2022/02/28 01:42:47;;;;;;;24.83;14.17;;;;;;;-1.44;80.63;102599.38;5019829;28;20321;-82
2022/02/28 01:45:17;;;;;;;19.60;13.43;;;;;;;-1.43;80.75;102602.81;5033145;28;20320;-82
2022/02/28 01:47:44;;;;;;;19.97;13.33;;;;;;;-1.44;81.36;102599.38;5022324;28;20217;-81
2022/02/28 01:50:11;;;;;;;24.30;14.53;;;;;;;-1.45;81.43;102587.16;5039332;28;20608;-82
2022/02/28 01:52:38;;;;;;;26.27;14.57;;;;;;;-1.44;81.21;102594.13;5040109;28;20316;-82
2022/02/28 01:55:05;;;;;;;22.17;13.63;;;;;;;-1.45;81.20;102592.38;5020446;28;20274;-82
2022/02/28 01:57:33;;;;;;;23.07;14.17;;;;;;;-1.46;81.77;102594.97;5035832;28;20582;-82
2022/02/28 02:00:00;;;;;;;22.33;13.73;;;;;;;-1.46;81.52;102592.34;5024352;28;20225;-82
2022/02/28 02:02:26;;;;;;;23.97;12.93;;;;;;;-1.48;81.60;102592.31;5038381;28;20313;-82
2022/02/28 02:04:53;;;;;;;24.23;14.57;;;;;;;-1.49;81.75;102584.44;5036879;28;20234;-81
2022/02/28 02:07:19;;;;;;;25.00;14.10;;;;;;;-1.51;81.84;102584.41;5033230;28;20203;-81
2022/02/28 02:09:46;;;;;;;22.93;13.97;;;;;;;-1.51;81.56;102589.66;5055965;28;20233;-83
2022/02/28 02:12:12;;;;;;;24.83;13.57;;;;;;;-1.52;81.71;102577.44;5018785;28;20241;-82
2022/02/28 02:14:41;;;;;;;23.73;13.37;;;;;;;-1.51;82.28;102580.94;5018869;28;20634;-83
2022/02/28 02:17:07;;;;;;;22.67;13.73;;;;;;;-1.52;82.40;102585.28;5032993;28;20206;-83
2022/02/28 02:19:36;;;;;;;23.30;13.23;;;;;;;-1.53;82.33;102578.28;5025733;28;20234;-82
2022/02/28 02:22:05;;;;;;;22.90;13.27;;;;;;;-1.53;82.18;102578.28;5036684;28;20226;-83
2022/02/28 02:24:32;;;;;;;22.27;13.47;;;;;;;-1.54;82.46;102575.66;5037445;28;20740;-82
2022/02/28 02:26:58;;;;;;;23.50;13.50;;;;;;;-1.55;82.52;102577.38;5036675;28;20218;-82
2022/02/28 02:29:25;;;;;;;22.03;14.00;;;;;;;-1.56;82.12;102580.84;5037099;28;20210;-83
2022/02/28 02:31:52;;;;;;;22.43;13.23;;;;;;;-1.58;82.28;102579.94;5037855;28;20272;-83
2022/02/28 02:34:18;;;;;;;25.53;14.03;;;;;;;-1.57;82.85;102584.31;5037505;28;20301;-83
2022/02/28 02:36:45;;;;;;;24.83;13.67;;;;;;;-1.59;82.79;102582.50;5037833;28;20289;-82
2022/02/28 02:39:13;;;;;;;22.17;13.73;;;;;;;-1.59;83.05;102583.41;5037832;28;20198;-82
2022/02/28 02:41:39;;;;;;;26.40;14.23;;;;;;;-1.59;82.87;102579.91;5037846;28;20667;-82
2022/02/28 02:44:06;;;;;;;19.33;12.43;;;;;;;-1.60;82.85;102576.41;5038454;28;20210;-82
2022/02/28 02:46:33;;;;;;;24.00;13.63;;;;;;;-1.59;83.05;102579.91;5038298;28;20218;-83
2022/02/28 02:48:59;;;;;;;23.63;12.50;;;;;;;-1.60;82.55;102588.59;5037860;28;20216;-83
2022/02/28 02:51:26;;;;;;;21.23;12.60;;;;;;;-1.61;82.76;102572.03;5037245;28;20244;-83
2022/02/28 02:53:52;;;;;;;21.63;12.53;;;;;;;-1.62;83.23;102570.31;5036918;28;20232;-83
2022/02/28 02:56:20;;;;;;;22.63;13.03;;;;;;;-1.62;83.23;102575.53;5024731;28;20210;-83
2022/02/28 02:58:47;;;;;;;20.70;12.10;;;;;;;-1.62;83.42;102575.53;5025814;28;20274;-83
2022/02/28 03:01:13;;;;;;;21.73;12.30;;;;;;;-1.65;83.33;102572.88;5036039;28;20202;-83
2022/02/28 03:03:40;;;;;;;21.67;12.37;;;;;;;-1.66;83.18;102573.72;5035761;28;20237;-83
2022/02/28 03:06:07;;;;;;;23.53;13.07;;;;;;;-1.66;83.02;102571.09;5037550;28;20212;-82
2022/02/28 03:08:34;;;;;;;24.33;12.83;;;;;;;-1.67;83.29;102573.69;5031036;28;20210;-82
2022/02/28 03:11:00;;;;;;;23.10;13.03;;;;;;;-1.69;83.14;102573.66;5018378;28;20298;-82
2022/02/28 03:13:28;;;;;;;23.67;13.10;;;;;;;-1.71;83.36;102567.53;5022216;28;20316;-82
2022/02/28 03:15:55;;;;;;;20.00;12.97;;;;;;;-1.71;83.14;102577.97;5038056;28;20208;-82
2022/02/28 03:18:21;;;;;;;21.63;12.73;;;;;;;-1.75;82.78;102568.31;5038789;28;20210;-83
2022/02/28 03:20:48;;;;;;;22.10;12.60;;;;;;;-1.78;83.25;102576.09;5041315;28;20206;-82
2022/02/28 03:23:14;;;;;;;18.60;11.80;;;;;;;-1.80;82.82;102573.47;5050036;28;20235;-82
2022/02/28 03:25:41;;;;;;;21.40;11.93;;;;;;;-1.81;83.30;102578.66;5042665;28;20529;-80
2022/02/28 03:28:08;;;;;;;22.00;12.63;;;;;;;-1.82;83.02;102576.91;5044199;28;20589;-82
2022/02/28 03:30:36;;;;;;;24.30;13.67;;;;;;;-1.83;83.44;102575.16;5043294;28;20317;-83
2022/02/28 03:33:02;;;;;;;22.07;12.60;;;;;;;-1.83;82.87;102576.03;5030322;28;20237;-81
2022/02/28 03:35:29;;;;;;;21.33;12.77;;;;;;;-1.84;83.21;102576.88;5027888;28;20216;-80
2022/02/28 03:37:55;;;;;;;20.67;12.87;;;;;;;-1.84;83.33;102576.00;5042682;28;20206;-83
2022/02/28 03:40:22;;;;;;;18.33;12.50;;;;;;;-1.85;83.53;102576.84;5041563;28;20228;-83
2022/02/28 03:42:48;;;;;;;19.57;12.07;;;;;;;-1.86;83.53;102573.34;5033256;28;20235;-83
2022/02/28 03:45:15;;;;;;;21.83;12.87;;;;;;;-1.88;83.13;102574.16;5023910;28;20677;-83
2022/02/28 03:47:43;;;;;;;23.17;13.23;;;;;;;-1.89;83.73;102570.69;5041100;28;20733;-83
2022/02/28 03:50:10;;;;;;;23.57;13.63;;;;;;;-1.90;83.20;102568.03;5032631;28;20234;-83
2022/02/28 03:52:36;;;;;;;21.90;12.80;;;;;;;-1.89;83.67;102575.91;5042150;28;20241;-82
2022/02/28 03:55:03;;;;;;;24.13;13.43;;;;;;;-1.90;83.24;102573.25;5037097;28;20220;-83
2022/02/28 03:57:30;;;;;;;21.47;12.50;;;;;;;-1.91;83.64;102577.59;5042343;28;20202;-83
2022/02/28 03:59:57;;;;;;;23.10;13.63;;;;;;;-1.93;83.70;102579.31;5042182;28;20296;-83
2022/02/28 04:02:23;;;;;;;21.87;13.43;;;;;;;-1.93;83.46;102584.53;5036812;28;20231;-80
2022/02/28 04:04:51;;;;;;;19.53;12.20;;;;;;;-1.96;83.77;102581.84;5023418;28;20214;-83
2022/02/28 04:07:18;;;;;;;21.07;12.17;;;;;;;-1.98;83.27;102586.19;5037566;28;20214;-83
2022/02/28 04:09:44;;;;;;;24.07;13.17;;;;;;;-2.02;83.43;102586.09;5035531;28;20230;-81
2022/02/28 04:12:11;;;;;;;20.00;12.20;;;;;;;-2.06;83.07;102584.28;5034301;28;20256;-83
2022/02/28 04:14:38;;;;;;;21.13;13.00;;;;;;;-2.08;83.37;102584.25;5041975;28;20763;-83
2022/02/28 04:17:05;;;;;;;20.70;12.87;;;;;;;-2.10;83.78;102584.22;5042287;28;20213;-83
2022/02/28 04:19:32;;;;;;;22.00;13.77;;;;;;;-2.11;83.35;102582.44;5041974;28;20206;-83
2022/02/28 04:21:59;;;;;;;19.13;12.13;;;;;;;-2.13;83.32;102576.31;5034496;28;20260;-83
2022/02/28 04:24:26;;;;;;;21.37;12.80;;;;;;;-2.15;83.47;102580.63;5034208;28;20221;-80
2022/02/28 04:26:53;;;;;;;21.93;12.77;;;;;;;-2.16;83.57;102578.00;5039921;28;20237;-83
2022/02/28 04:29:19;;;;;;;19.70;12.27;;;;;;;-2.23;83.27;102577.00;5041845;28;20216;-83
2022/02/28 04:31:46;;;;;;;21.77;12.47;;;;;;;-2.27;83.52;102574.28;5039529;28;20233;-82
2022/02/28 04:34:13;;;;;;;20.37;12.57;;;;;;;-2.30;83.49;102574.22;5041533;28;20207;-82
2022/02/28 04:36:40;;;;;;;18.90;11.87;;;;;;;-2.33;83.29;102574.19;5036230;28;20252;-83
2022/02/28 04:39:08;;;;;;;20.03;11.97;;;;;;;-2.35;83.64;102573.28;5051050;28;20667;-83
2022/02/28 04:41:35;;;;;;;18.53;12.90;;;;;;;-2.36;83.54;102575.00;5043781;28;20208;-83
2022/02/28 04:44:01;;;;;;;19.57;12.20;;;;;;;-2.37;83.21;102586.28;5040172;28;20214;-82
2022/02/28 04:46:28;;;;;;;20.93;12.80;;;;;;;-2.38;83.52;102589.75;5033671;28;20593;-83
2022/02/28 04:48:54;;;;;;;22.70;12.77;;;;;;;-2.38;83.52;102597.56;5037497;28;20244;-83
2022/02/28 04:51:21;;;;;;;24.70;13.33;;;;;;;-2.37;83.77;102595.84;5032929;28;20226;-82
2022/02/28 04:53:47;;;;;;;22.33;13.10;;;;;;;-2.38;83.25;102596.69;5032299;28;20223;-83
2022/02/28 04:56:16;;;;;;;22.47;12.87;;;;;;;-2.41;83.32;102588.78;5036004;28;20205;-83
2022/02/28 04:58:42;;;;;;;23.83;13.60;;;;;;;-2.42;83.81;102590.53;5036864;28;20203;-83
2022/02/28 05:01:09;;;;;;;22.07;13.27;;;;;;;-2.43;83.72;102599.19;5037255;28;20198;-83
2022/02/28 05:03:35;;;;;;;23.47;14.07;;;;;;;-2.44;83.78;102594.81;5045055;28;20317;-83
2022/02/28 05:06:02;;;;;;;21.93;13.77;;;;;;;-2.46;83.75;102592.19;5044559;28;20207;-83
2022/02/28 05:08:29;;;;;;;25.77;13.67;;;;;;;-2.45;83.78;102591.34;5039975;28;20695;-83
2022/02/28 05:10:55;;;;;;;23.77;13.67;;;;;;;-2.45;83.73;102598.28;5039016;28;20269;-83
2022/02/28 05:13:23;;;;;;;23.27;13.53;;;;;;;-2.46;83.96;102599.13;5038122;28;20272;-83
2022/02/28 05:15:50;;;;;;;21.13;12.43;;;;;;;-2.48;83.71;102591.25;5048417;28;20288;-82
2022/02/28 05:18:17;;;;;;;23.77;13.27;;;;;;;-2.50;83.48;102594.69;5046347;28;20220;-83
2022/02/28 05:20:44;;;;;;;23.83;13.73;;;;;;;-2.52;83.52;102588.59;5040800;28;20207;-82
2022/02/28 05:23:11;;;;;;;23.17;13.30;;;;;;;-2.55;83.95;102591.13;5047046;28;20222;-83
2022/02/28 05:25:37;;;;;;;26.63;14.10;;;;;;;-2.56;83.65;102591.97;5038768;28;20281;-82
2022/02/28 05:28:04;;;;;;;25.73;13.63;;;;;;;-2.57;83.73;102592.81;5041662;28;20218;-82
2022/02/28 05:30:32;;;;;;;23.40;13.93;;;;;;;-2.58;83.50;102593.66;5045955;28;20229;-82
2022/02/28 05:32:59;;;;;;;22.40;13.07;;;;;;;-2.60;83.94;102597.97;5046397;28;20225;-83
2022/02/28 05:35:26;;;;;;;23.30;13.43;;;;;;;-2.61;84.05;102594.47;5035416;28;20570;-83
2022/02/28 05:37:52;;;;;;;21.87;13.13;;;;;;;-2.62;84.29;102594.44;5045829;28;20662;-81
2022/02/28 05:40:22;;;;;;;22.43;14.07;;;;;;;-2.63;83.95;102596.16;5040856;28;20212;-83
2022/02/28 05:42:48;;;;;;;23.53;14.90;;;;;;;-2.63;83.77;102597.88;5041010;28;20226;-82
2022/02/28 05:45:15;;;;;;;22.33;13.67;;;;;;;-2.64;83.90;102599.59;5041364;28;20208;-81
2022/02/28 05:47:43;;;;;;;24.33;14.70;;;;;;;-2.65;83.98;102607.41;5047546;28;20206;-81
2022/02/28 05:50:11;;;;;;;20.47;13.00;;;;;;;-2.66;84.00;102603.03;5045399;28;20206;-81
2022/02/28 05:52:38;;;;;;;22.30;12.47;;;;;;;-2.67;83.83;102609.09;5041338;28;20229;-81
2022/02/28 05:55:06;;;;;;;19.40;12.80;;;;;;;-2.69;83.97;102605.59;5040652;28;20210;-80
2022/02/28 05:57:35;;;;;;;21.60;13.20;;;;;;;-2.71;83.93;102604.69;5026185;28;20210;-82
2022/02/28 06:00:01;;;;;;;29.20;13.90;;;;;;;-2.71;84.54;102609.91;5017932;28;20653;-82
2022/02/28 06:02:28;;;;;;;25.20;13.97;;;;;;;-2.72;84.33;102608.13;5025220;28;20222;-83
2022/02/28 06:04:56;;;;;;;28.00;15.80;;;;;;;-2.72;84.25;102610.75;5030867;28;20560;-83
2022/02/28 06:07:23;;;;;;;24.27;14.70;;;;;;;-2.71;84.73;102607.28;5020866;28;20295;-82
2022/02/28 06:09:49;;;;;;;27.30;14.73;;;;;;;-2.71;84.62;102617.72;5018986;28;20578;-82
2022/02/28 06:12:16;;;;;;;26.30;14.20;;;;;;;-2.72;84.95;102611.63;5025526;28;20248;-83
2022/02/28 06:14:43;;;;;;;23.87;14.30;;;;;;;-2.71;84.86;102617.72;5026981;28;20198;-83
2022/02/28 06:17:09;;;;;;;26.07;14.70;;;;;;;-2.71;84.88;102617.72;5024888;28;20205;-83
2022/02/28 06:19:36;;;;;;;23.50;14.30;;;;;;;-2.70;85.18;102619.47;5020380;28;20692;-83
2022/02/28 06:22:04;;;;;;;29.63;14.60;;;;;;;-2.71;85.24;102613.38;5023983;28;20227;-83
2022/02/28 06:24:30;;;;;;;25.07;14.43;;;;;;;-2.70;84.99;102609.03;5023561;28;20206;-81
2022/02/28 06:26:57;;;;;;;27.80;14.13;;;;;;;-2.70;85.45;102620.38;5019780;28;20220;-83
2022/02/28 06:29:23;;;;;;;23.80;14.27;;;;;;;-2.68;84.95;102620.38;5027061;28;20579;-83
2022/02/28 06:31:50;;;;;;;22.43;14.07;;;;;;;-2.68;85.64;102617.75;5017659;28;20250;-82
2022/02/28 06:34:17;;;;;;;23.97;13.97;;;;;;;-2.69;85.59;102629.94;5028704;28;20203;-82
2022/02/28 06:36:43;;;;;;;25.93;14.07;;;;;;;-2.65;85.60;102629.16;5036630;28;20202;-81
2022/02/28 06:39:11;;;;;;;23.60;14.53;;;;;;;-2.63;85.66;102637.00;5016183;28;20211;-82
2022/02/28 06:41:38;;;;;;;22.80;13.90;;;;;;;-2.62;85.96;102630.94;5015986;28;20234;-82
2022/02/28 06:44:05;;;;;;;25.27;14.13;;;;;;;-2.61;85.84;102625.75;5030720;28;20207;-82
2022/02/28 06:46:32;;;;;;;27.77;14.40;;;;;;;-2.57;86.19;102629.34;5026897;28;20214;-80
2022/02/28 06:48:59;;;;;;;25.37;14.43;;;;;;;-2.56;85.99;102633.69;5021230;28;20686;-82
2022/02/28 06:51:25;;;;;;;22.43;13.73;;;;;;;-2.55;86.20;102635.47;5034730;28;20230;-81
2022/02/28 06:53:52;;;;;;;24.63;13.83;;;;;;;-2.53;86.15;102625.94;5036568;28;20238;-80
2022/02/28 06:56:20;;;;;;;27.23;14.93;;;;;;;-2.51;86.27;102637.31;5039335;28;20216;-81
2022/02/28 06:58:46;;;;;;;29.47;15.43;;;;;;;-2.49;86.33;102635.56;5037504;28;20591;-83
2022/02/28 07:01:13;;;;;;;31.50;15.77;;;;;;;-2.47;86.61;102634.78;5024748;28;20724;-82
2022/02/28 07:03:39;;;;;;;29.70;14.73;;;;;;;-2.43;86.62;102638.31;5030753;28;20242;-82
2022/02/28 07:06:06;;;;;;;30.80;15.77;;;;;;;-2.39;87.18;102642.78;5039268;28;20221;-82
2022/02/28 07:08:34;;;;;;;30.07;14.87;;;;;;;-2.36;87.02;102647.19;5037854;28;20368;-83
2022/02/28 07:11:02;;;;;;;27.00;15.27;;;;;;;-2.32;86.94;102646.38;5024120;28;20222;-82
2022/02/28 07:13:32;;;;;;;26.33;15.13;;;;;;;-2.27;86.90;102653.47;5039326;28;20234;-81
2022/02/28 07:15:59;;;;;;;24.23;14.97;;;;;;;-2.23;87.45;102650.06;5035268;28;20233;-83
2022/02/28 07:18:25;;;;;;;30.73;15.77;;;;;;;-2.19;87.09;102651.91;5038864;28;20206;-83
2022/02/28 07:20:52;;;;;;;28.50;15.80;;;;;;;-2.13;87.73;102654.63;5037970;28;20206;-82
2022/02/28 07:23:18;;;;;;;25.20;15.53;;;;;;;-2.08;87.93;102648.63;5032170;28;20234;-81
2022/02/28 07:25:45;;;;;;;27.10;15.70;;;;;;;-2.05;87.77;102652.19;5026099;28;20210;-82
2022/02/28 07:28:11;;;;;;;37.57;17.80;;;;;;;-1.99;88.17;102652.31;5019309;28;20229;-83
2022/02/28 07:30:39;;;;;;;35.17;17.23;;;;;;;-1.95;87.87;102656.72;5024626;28;20624;-81
2022/02/28 07:33:06;;;;;;;35.43;15.70;;;;;;;-1.89;88.48;102655.97;5019626;28;20242;-81
2022/02/28 07:35:33;;;;;;;40.37;18.87;;;;;;;-1.84;88.36;102659.56;5033368;28;20516;-81
2022/02/28 07:38:00;;;;;;;31.00;16.57;;;;;;;-1.78;88.73;102657.06;5017929;28;20210;-83
2022/02/28 07:40:27;;;;;;;35.47;18.23;;;;;;;-1.73;88.46;102655.41;5036343;28;20214;-82
2022/02/28 07:42:54;;;;;;;33.37;17.07;;;;;;;-1.66;88.92;102667.75;5038436;28;20309;-81
2022/02/28 07:45:21;;;;;;;32.80;17.27;;;;;;;-1.58;88.78;102673.09;5037225;28;20282;-82
2022/02/28 07:47:49;;;;;;;28.90;16.80;;;;;;;-1.51;89.02;102668.03;5037128;28;20210;-83
2022/02/28 07:50:16;;;;;;;33.23;16.57;;;;;;;-1.43;89.39;102674.25;5022513;28;20214;-83
2022/02/28 07:52:42;;;;;;;36.37;18.63;;;;;;;-1.35;89.37;102681.38;5029991;28;20235;-82
2022/02/28 07:55:10;;;;;;;32.43;18.23;;;;;;;-1.28;89.50;102684.16;5030640;28;20220;-83
2022/02/28 07:57:36;;;;;;;40.10;19.77;;;;;;;-1.25;89.89;102684.16;5033728;28;20210;-81
2022/02/28 08:00:05;;;;;;;33.87;18.47;;;;;;;-1.18;90.09;102674.72;5018531;28;20210;-82
2022/02/28 08:02:31;;;;;;;39.83;19.23;;;;;;;-1.11;90.24;102679.19;5019670;28;20284;-80
2022/02/28 08:04:59;;;;;;;37.43;19.37;;;;;;;-1.05;90.12;102681.91;5036412;28;20246;-83
2022/02/28 08:07:25;;;;;;;41.27;21.20;;;;;;;-0.97;90.25;102680.31;5021203;28;20206;-81
2022/02/28 08:09:52;;;;;;;36.03;17.40;;;;;;;-0.92;90.67;102673.41;5028248;28;20206;-82
2022/02/28 08:12:18;;;;;;;37.93;20.50;;;;;;;-0.84;90.57;102677.03;5021563;28;20240;-80
2022/02/28 08:14:45;;;;;;;35.97;18.87;;;;;;;-0.73;90.79;102674.59;5025834;28;20216;-82
2022/02/28 08:17:11;;;;;;;34.23;19.63;;;;;;;-0.63;90.85;102678.22;5023475;28;20713;-81
2022/02/28 08:19:38;;;;;;;36.60;18.87;;;;;;;-0.52;91.21;102674.00;5035249;28;20202;-80
2022/02/28 08:22:06;;;;;;;33.87;18.33;;;;;;;-0.40;90.88;102668.97;5045994;28;20255;-81
2022/02/28 08:24:32;;;;;;;40.70;19.90;;;;;;;-0.30;91.18;102672.56;5036717;28;20633;-81
2022/02/28 08:26:59;;;;;;;33.37;18.07;;;;;;;-0.19;91.30;102673.63;5035399;28;20206;-81
2022/02/28 08:29:26;;;;;;;34.30;17.80;;;;;;;-0.08;91.14;102674.63;5035527;28;20217;-82
2022/02/28 08:31:52;;;;;;;35.93;19.40;;;;;;;0.04;91.19;102671.25;5036521;28;20233;-82
2022/02/28 08:34:19;;;;;;;32.07;18.30;;;;;;;0.15;91.25;102674.91;5036179;28;20214;-81
2022/02/28 08:36:45;;;;;;;34.57;19.10;;;;;;;0.25;90.93;102669.78;5032461;28;20210;-82
2022/02/28 08:39:13;;;;;;;28.37;17.70;;;;;;;0.39;91.04;102664.69;5034317;28;20213;-83
2022/02/28 08:41:40;;;;;;;34.27;19.10;;;;;;;0.55;91.04;102665.72;5029620;28;20694;-81
2022/02/28 08:44:07;;;;;;;36.03;18.90;;;;;;;0.69;90.97;102653.63;5029061;28;20210;-80
2022/02/28 08:46:34;;;;;;;36.03;18.73;;;;;;;0.87;90.87;102655.53;5022059;28;20241;-80
2022/02/28 08:49:01;;;;;;;28.53;16.80;;;;;;;1.00;90.95;102660.03;5037187;28;20221;-82
2022/02/28 08:51:27;;;;;;;23.77;15.50;;;;;;;1.15;90.16;102662.75;5017776;28;20210;-81
2022/02/28 08:53:54;;;;;;;22.97;15.57;;;;;;;1.27;89.66;102657.59;5031409;28;20704;-80
2022/02/28 08:56:22;;;;;;;25.60;15.87;;;;;;;1.42;89.18;102669.09;5021910;28;20652;-81
2022/02/28 08:58:48;;;;;;;26.37;16.10;;;;;;;1.54;88.91;102669.16;5037586;28;20670;-82
2022/02/28 09:01:15;;;;;;;23.33;15.40;;;;;;;1.65;88.58;102668.34;5035639;28;20225;-83
2022/02/28 09:03:41;;;;;;;25.33;14.93;;;;;;;1.79;87.78;102672.81;5032523;28;20230;-82
2022/02/28 09:06:08;;;;;;;25.57;16.07;;;;;;;1.91;87.49;102667.59;5036460;28;20300;-82
2022/02/28 09:08:35;;;;;;;28.40;16.43;;;;;;;2.01;86.54;102666.75;5023265;28;20577;-83
2022/02/28 09:11:01;;;;;;;29.37;16.27;;;;;;;2.12;86.04;102662.44;5029372;28;20221;-81
2022/02/28 09:13:29;;;;;;;27.00;16.77;;;;;;;2.20;84.98;102663.31;5027037;28;20235;-82
2022/02/28 09:15:56;;;;;;;25.10;15.77;;;;;;;2.26;84.38;102662.47;5025023;28;20212;-85
2022/02/28 09:18:22;;;;;;;24.20;16.63;;;;;;;2.29;84.09;102666.00;5031608;28;20205;-82
2022/02/28 09:20:49;;;;;;;25.83;15.77;;;;;;;2.34;83.45;102656.34;5020334;28;20215;-83
2022/02/28 09:23:15;;;;;;;28.73;16.97;;;;;;;2.39;82.81;102656.38;5026791;28;20234;-84
2022/02/28 09:25:42;;;;;;;23.70;15.77;;;;;;;2.46;82.43;102649.38;5033847;28;20407;-84
2022/02/28 09:28:09;;;;;;;26.33;15.00;;;;;;;2.53;81.35;102653.75;5031735;28;20206;-84
2022/02/28 09:30:37;;;;;;;23.63;15.07;;;;;;;2.58;81.13;102652.91;5036719;28;20210;-83
2022/02/28 09:33:03;;;;;;;23.03;15.90;;;;;;;2.65;80.73;102662.56;5034080;28;20609;-84
2022/02/28 09:35:30;;;;;;;23.63;15.43;;;;;;;2.73;80.05;102658.16;5030141;28;20766;-83
2022/02/28 09:37:57;;;;;;;22.33;15.00;;;;;;;2.81;80.06;102657.31;5028695;28;20214;-84
2022/02/28 09:40:29;;;;;;;21.03;14.93;;;;;;;2.93;79.38;102665.19;5021666;28;20218;-83
2022/02/28 09:42:56;;;;;;;22.30;15.27;;;;;;;3.05;78.54;102662.56;5036197;28;20690;-83
2022/02/28 09:45:25;;;;;;;25.00;15.57;;;;;;;3.14;78.66;102676.63;5022988;28;20293;-84
2022/02/28 09:47:54;;;;;;;24.23;16.47;;;;;;;3.25;78.18;102679.22;5016015;28;20265;-84
2022/02/28 09:50:20;;;;;;;23.87;15.07;;;;;;;3.34;77.17;102687.13;5029873;28;20210;-83
2022/02/28 09:52:47;;;;;;;28.57;17.43;;;;;;;3.45;76.63;102682.72;5028825;28;20235;-82
2022/02/28 09:55:15;;;;;;;26.73;17.47;;;;;;;3.56;76.30;102682.72;5029881;28;20214;-84
2022/02/28 09:57:45;;;;;;;30.73;17.57;;;;;;;3.64;76.39;102685.31;5035728;28;20206;-84
2022/02/28 10:00:16;;;;;;;27.80;17.67;;;;;;;3.68;75.80;102687.94;5036544;28;20221;-84
2022/02/28 10:02:43;;;;;;;30.23;18.13;;;;;;;3.72;75.88;102686.19;5034471;28;20622;-84
2022/02/28 10:05:11;;;;;;;31.87;18.87;;;;;;;3.76;75.73;102686.16;5036449;28;20214;-83
2022/02/28 10:07:49;;;;;;;33.90;20.53;;;;;;;3.79;74.90;102693.19;5036038;28;20217;-83
2022/02/28 10:10:16;;;;;;;34.30;20.10;;;;;;;3.77;74.83;102690.53;5024426;28;20209;-84
2022/02/28 10:12:43;;;;;;;35.00;21.57;;;;;;;3.75;74.44;102697.63;5036715;28;20246;-84
2022/02/28 10:15:12;;;;;;;36.63;21.13;;;;;;;3.74;74.31;102703.75;5017086;28;20589;-84
2022/02/28 10:17:43;;;;;;;36.13;21.30;;;;;;;3.75;74.40;102707.28;5029403;28;20206;-83
2022/02/28 10:20:22;;;;;;;38.10;21.60;;;;;;;3.75;74.24;102702.88;5034339;28;20217;-83
2022/02/28 10:22:54;;;;;;;46.27;23.27;;;;;;;3.74;74.90;102701.13;5034989;28;20309;-83
2022/02/28 10:25:29;;;;;;;36.07;21.47;;;;;;;3.76;74.44;102706.41;5034689;28;20273;-83
2022/02/28 10:28:15;;;;;;;32.40;19.67;;;;;;;3.72;74.58;102705.53;5035936;28;20213;-83
2022/02/28 10:30:51;;;;;;;35.10;20.60;;;;;;;3.69;74.19;102700.25;5028523;28;20211;-83
2022/02/28 10:33:18;;;;;;;34.37;19.83;;;;;;;3.68;74.37;102702.88;5022922;28;20234;-83
2022/02/28 10:36:10;;;;;;;33.97;19.33;;;;;;;3.61;75.01;102707.28;5036110;28;20675;-83
2022/02/28 10:38:41;;;;;;;31.13;17.87;;;;;;;3.56;74.31;102703.78;5018390;28;20211;-84
2022/02/28 10:41:16;;;;;;;31.13;19.33;;;;;;;3.55;74.77;102707.31;5027412;28;20221;-85
2022/02/28 10:43:44;;;;;;;31.87;19.30;;;;;;;3.58;75.06;102706.44;5017789;28;20715;-84
2022/02/28 10:46:16;;;;;;;34.90;19.87;;;;;;;3.59;75.03;102702.88;5024587;28;20210;-84
2022/02/28 10:48:54;;;;;;;36.20;19.57;;;;;;;3.56;74.55;102701.16;5019628;28;20303;-84
2022/02/28 10:51:22;;;;;;;32.27;19.60;;;;;;;3.60;74.99;102705.53;5016208;28;20210;-83
2022/02/28 10:53:48;;;;;;;42.03;21.83;;;;;;;3.62;74.93;102689.72;5018539;28;20245;-83
2022/02/28 10:56:15;;;;;;;38.90;22.47;;;;;;;3.64;74.71;102694.09;5015759;28;20211;-83
2022/02/28 10:58:41;;;;;;;35.50;21.10;;;;;;;3.70;75.45;102702.00;5026746;28;20217;-85
2022/02/28 11:01:08;;;;;;;35.53;19.23;;;;;;;3.75;74.98;102696.72;5018346;28;20573;-84
2022/02/28 11:03:45;;;;;;;35.43;20.47;;;;;;;3.75;75.06;102694.97;5027455;28;20226;-84
2022/02/28 11:06:13;;;;;;;31.63;19.20;;;;;;;3.77;75.42;102685.28;5030573;28;20210;-85
2022/02/28 11:08:43;;;;;;;30.27;18.23;;;;;;;3.81;75.27;102688.78;5023953;28;20277;-84
2022/02/28 11:11:12;;;;;;;32.73;20.00;;;;;;;3.80;75.16;102684.41;5019363;28;20211;-84
2022/02/28 11:13:39;;;;;;;37.00;20.57;;;;;;;3.85;75.31;102685.25;5016132;28;20245;-83